createdAt,value
2018-09-16T00:05:48.075Z,10.5
2018-09-16T00:16:02.678Z,10.6
2018-09-16T00:26:16.668Z,10.5
2018-09-16T00:36:30.958Z,10.5
2018-09-16T00:46:45.011Z,10.7
2018-09-16T00:56:59.098Z,10.3
2018-09-16T01:07:13.488Z,10.4
2018-09-16T01:17:28.475Z,10.2
2018-09-16T01:27:42.778Z,9.9
2018-09-16T01:37:57.155Z,10.3
2018-09-16T01:48:12.717Z,9.9
2018-09-16T01:58:28.402Z,9.6
2018-09-16T02:08:43.812Z,10.2
2018-09-16T02:18:59.112Z,10.3
2018-09-16T02:29:13.879Z,10.5
2018-09-16T02:39:28.578Z,10.3
2018-09-16T02:49:43.019Z,10.3
2018-09-16T02:59:56.955Z,10.3
2018-09-16T03:10:12.020Z,10.2
2018-09-16T03:20:27.562Z,10
2018-09-16T03:30:42.199Z,9.6
2018-09-16T03:40:56.221Z,9.5
2018-09-16T03:51:10.452Z,9.7
2018-09-16T04:01:25.254Z,9.7
2018-09-16T04:11:40.468Z,9.6
2018-09-16T04:21:55.093Z,9.4
2018-09-16T04:32:09.656Z,9.4
2018-09-16T04:42:23.991Z,9.2
2018-09-16T04:52:39.325Z,9.1
2018-09-16T05:02:54.116Z,9.1
2018-09-16T05:13:09.489Z,9.1
2018-09-16T05:23:23.913Z,9.3
2018-09-16T05:33:39.112Z,9.5
2018-09-16T05:43:54.153Z,9.7
2018-09-16T05:54:07.918Z,9.9
2018-09-16T06:04:22.672Z,10.2
2018-09-16T06:14:36.692Z,10.5
2018-09-16T06:24:51.800Z,10.5
2018-09-16T06:35:06.607Z,10.8
2018-09-16T06:45:22.222Z,11.1
2018-09-16T06:55:37.552Z,11.7
2018-09-16T07:05:51.883Z,12.3
2018-09-16T07:16:06.850Z,12.8
2018-09-16T07:26:21.621Z,14.2
2018-09-16T07:36:35.754Z,15.5
2018-09-16T07:46:50.711Z,16
2018-09-16T07:57:04.607Z,16.4
2018-09-16T08:07:19.385Z,17.2
2018-09-16T08:17:34.249Z,18.2
2018-09-16T08:27:48.939Z,19.1
2018-09-16T08:38:03.701Z,19.2
2018-09-16T08:48:18.962Z,18.6
2018-09-16T08:58:34.833Z,20
2018-09-16T09:08:49.371Z,20.3
2018-09-16T09:19:04.393Z,20.3
2018-09-16T09:29:18.085Z,20.8
2018-09-16T09:39:33.180Z,21.7
2018-09-16T09:49:48.200Z,21.7
2018-09-16T10:00:03.548Z,22
2018-09-16T10:10:19.142Z,22.3
2018-09-16T10:20:34.547Z,22.9
2018-09-16T10:30:49.105Z,22.4
2018-09-16T10:41:03.310Z,22.7
2018-09-16T10:51:19.111Z,22.8
2018-09-16T11:01:34.153Z,22.9
2018-09-16T11:11:50.072Z,23.3
2018-09-16T11:22:03.902Z,22.8
2018-09-16T11:32:19.370Z,23.9
2018-09-16T11:42:33.744Z,23.6
2018-09-16T11:52:47.687Z,23.2
2018-09-16T12:03:01.970Z,23.5
2018-09-16T12:13:15.891Z,23.2
2018-09-16T12:23:30.609Z,23.3
2018-09-16T12:33:45.446Z,23.7
2018-09-16T12:44:00.237Z,23.4
2018-09-16T12:54:15.423Z,23.5
2018-09-16T13:04:30.491Z,24.6
2018-09-16T13:14:44.769Z,24.7
2018-09-16T13:25:00.043Z,24.3
2018-09-16T13:35:14.026Z,23.4
2018-09-16T13:45:29.296Z,23.5
2018-09-16T13:55:43.230Z,23.5
2018-09-16T14:05:57.478Z,23.4
2018-09-16T14:16:13.237Z,23.3
2018-09-16T14:26:28.335Z,23.2
2018-09-16T14:36:43.496Z,23.2
2018-09-16T14:46:58.481Z,23.6
2018-09-16T14:57:12.525Z,22.7
2018-09-16T15:07:27.500Z,22.5
2018-09-16T15:17:41.554Z,22.3
2018-09-16T15:27:55.658Z,22.3
2018-09-16T15:38:10.628Z,22.2
2018-09-16T15:48:24.917Z,22.3
2018-09-16T15:58:40.420Z,22.2
2018-09-16T16:08:55.150Z,22
2018-09-16T16:19:09.656Z,21.9
2018-09-16T16:29:24.067Z,21.9
2018-09-16T16:39:39.127Z,21.7
2018-09-16T16:49:53.701Z,20.9
2018-09-16T17:00:08.530Z,20.3
2018-09-16T17:10:22.512Z,19.9
2018-09-16T17:20:36.533Z,19.4
2018-09-16T17:30:51.219Z,19.1
2018-09-16T17:41:06.312Z,19
2018-09-16T17:51:20.365Z,18.3
2018-09-16T18:01:34.270Z,17.7
2018-09-16T18:11:49.908Z,17.3
2018-09-16T18:22:04.528Z,16.8
2018-09-16T18:32:18.844Z,17.2
2018-09-16T18:42:34.477Z,17
2018-09-16T18:52:49.233Z,16.8
2018-09-16T19:03:04.038Z,16.6
2018-09-16T19:13:18.573Z,16
2018-09-16T19:23:33.616Z,15.6
2018-09-16T19:33:49.203Z,15.5
2018-09-16T19:44:03.912Z,15.2
2018-09-16T19:54:18.205Z,15.4
2018-09-16T20:04:33.403Z,15.3
2018-09-16T20:14:47.775Z,15.4
2018-09-16T20:25:01.978Z,15.5
2018-09-16T20:35:17.525Z,14.7
2018-09-16T20:45:32.192Z,13.9
2018-09-16T20:55:47.787Z,13.5
2018-09-16T21:06:02.376Z,13.3
2018-09-16T21:16:16.832Z,12.7
2018-09-16T21:26:32.177Z,12.9
2018-09-16T21:36:47.068Z,13.4
2018-09-16T21:47:01.469Z,12.9
2018-09-16T21:57:16.910Z,12.9
2018-09-16T22:07:31.439Z,12.6
2018-09-16T22:17:46.708Z,11.9
2018-09-16T22:28:01.452Z,11.9
2018-09-16T22:38:15.184Z,11.1
2018-09-16T22:48:28.981Z,11.1
2018-09-16T22:58:42.957Z,11.1
2018-09-16T23:08:56.703Z,11.6
2018-09-16T23:19:11.505Z,10.9
2018-09-16T23:29:25.226Z,10.8
2018-09-16T23:39:40.559Z,10.6
2018-09-16T23:49:56.273Z,10.6
